sensor_id;sensor_type;location;lat;lon;timestamp;P1;durP1;ratioP1;P2;durP2;ratioP2
11078;SDS011;5592;49.234;7.268;2022-09-03T00:01:45;4.80;;;2.30;;
11078;SDS011;5592;49.234;7.268;2022-09-03T00:10:35;3.00;;;2.27;;
11078;SDS011;5592;49.234;7.268;2022-09-03T00:13:03;3.57;;;2.30;;
11078;SDS011;5592;49.234;7.268;2022-09-03T00:15:31;2.70;;;2.47;;
11078;SDS011;5592;49.234;7.268;2022-09-03T00:18:08;2.30;;;2.10;;
11078;SDS011;5592;49.234;7.268;2022-09-03T00:20:38;4.20;;;2.30;;
11078;SDS011;5592;49.234;7.268;2022-09-03T00:23:05;2.33;;;2.13;;
11078;SDS011;5592;49.234;7.268;2022-09-03T00:31:52;4.07;;;2.43;;
11078;SDS011;5592;49.234;7.268;2022-09-03T00:34:28;2.77;;;2.50;;
11078;SDS011;5592;49.234;7.268;2022-09-03T00:36:56;5.00;;;2.40;;
11078;SDS011;5592;49.234;7.268;2022-09-03T00:39:24;2.70;;;1.90;;
11078;SDS011;5592;49.234;7.268;2022-09-03T00:44:52;4.13;;;1.90;;
11078;SDS011;5592;49.234;7.268;2022-09-03T01:13:11;3.17;;;2.87;;
11078;SDS011;5592;49.234;7.268;2022-09-03T01:18:52;3.00;;;2.20;;
11078;SDS011;5592;49.234;7.268;2022-09-03T01:21:52;4.30;;;2.23;;
11078;SDS011;5592;49.234;7.268;2022-09-03T01:30:24;2.63;;;1.80;;
11078;SDS011;5592;49.234;7.268;2022-09-03T01:40:50;3.00;;;2.40;;
11078;SDS011;5592;49.234;7.268;2022-09-03T01:46:04;2.63;;;2.33;;
11078;SDS011;5592;49.234;7.268;2022-09-03T01:51:05;2.20;;;2.00;;
11078;SDS011;5592;49.234;7.268;2022-09-03T02:02:00;5.70;;;2.73;;
11078;SDS011;5592;49.234;7.268;2022-09-03T02:04:32;4.53;;;2.30;;
11078;SDS011;5592;49.234;7.268;2022-09-03T02:06:58;3.03;;;1.90;;
11078;SDS011;5592;49.234;7.268;2022-09-03T02:09:25;4.37;;;2.33;;
11078;SDS011;5592;49.234;7.268;2022-09-03T02:11:53;3.63;;;2.23;;
11078;SDS011;5592;49.234;7.268;2022-09-03T02:14:40;4.77;;;2.50;;
11078;SDS011;5592;49.234;7.268;2022-09-03T02:17:05;2.47;;;2.10;;
11078;SDS011;5592;49.234;7.268;2022-09-03T02:19:32;5.60;;;2.23;;
11078;SDS011;5592;49.234;7.268;2022-09-03T02:21:58;2.33;;;2.03;;
11078;SDS011;5592;49.234;7.268;2022-09-03T02:24:24;2.57;;;2.30;;
11078;SDS011;5592;49.234;7.268;2022-09-03T02:26:52;2.90;;;2.10;;
11078;SDS011;5592;49.234;7.268;2022-09-03T02:29:18;4.20;;;2.50;;
11078;SDS011;5592;49.234;7.268;2022-09-03T02:31:44;3.17;;;2.33;;
11078;SDS011;5592;49.234;7.268;2022-09-03T02:34:10;3.53;;;2.57;;
11078;SDS011;5592;49.234;7.268;2022-09-03T02:36:40;2.47;;;2.00;;
11078;SDS011;5592;49.234;7.268;2022-09-03T02:39:09;3.10;;;2.20;;
11078;SDS011;5592;49.234;7.268;2022-09-03T02:41:36;4.80;;;2.60;;
11078;SDS011;5592;49.234;7.268;2022-09-03T02:44:14;2.77;;;2.57;;
11078;SDS011;5592;49.234;7.268;2022-09-03T02:46:58;1.93;;;1.83;;
11078;SDS011;5592;49.234;7.268;2022-09-03T02:49:28;3.37;;;2.80;;
11078;SDS011;5592;49.234;7.268;2022-09-03T02:52:06;6.40;;;2.53;;
11078;SDS011;5592;49.234;7.268;2022-09-03T02:54:36;3.37;;;2.20;;
11078;SDS011;5592;49.234;7.268;2022-09-03T02:57:09;2.93;;;2.63;;
11078;SDS011;5592;49.234;7.268;2022-09-03T02:59:37;5.43;;;2.33;;
11078;SDS011;5592;49.234;7.268;2022-09-03T03:02:04;8.60;;;2.50;;
11078;SDS011;5592;49.234;7.268;2022-09-03T03:04:30;7.23;;;3.07;;
11078;SDS011;5592;49.234;7.268;2022-09-03T03:06:56;3.13;;;2.43;;
11078;SDS011;5592;49.234;7.268;2022-09-03T03:09:22;3.00;;;2.63;;
11078;SDS011;5592;49.234;7.268;2022-09-03T03:11:48;3.10;;;2.70;;
11078;SDS011;5592;49.234;7.268;2022-09-03T03:14:15;3.40;;;2.80;;
11078;SDS011;5592;49.234;7.268;2022-09-03T03:16:42;3.57;;;3.00;;
11078;SDS011;5592;49.234;7.268;2022-09-03T03:19:08;7.30;;;3.10;;
11078;SDS011;5592;49.234;7.268;2022-09-03T03:21:34;4.93;;;2.73;;
11078;SDS011;5592;49.234;7.268;2022-09-03T03:24:00;3.43;;;2.87;;
11078;SDS011;5592;49.234;7.268;2022-09-03T03:26:26;3.63;;;3.17;;
11078;SDS011;5592;49.234;7.268;2022-09-03T03:28:56;4.23;;;2.90;;
11078;SDS011;5592;49.234;7.268;2022-09-03T03:31:23;4.47;;;3.20;;
11078;SDS011;5592;49.234;7.268;2022-09-03T03:33:53;5.23;;;3.03;;
11078;SDS011;5592;49.234;7.268;2022-09-03T03:36:22;3.10;;;2.80;;
11078;SDS011;5592;49.234;7.268;2022-09-03T03:38:51;4.00;;;3.27;;
11078;SDS011;5592;49.234;7.268;2022-09-03T03:41:19;7.20;;;3.53;;
11078;SDS011;5592;49.234;7.268;2022-09-03T03:43:46;8.10;;;3.53;;
11078;SDS011;5592;49.234;7.268;2022-09-03T03:46:16;4.70;;;3.30;;
11078;SDS011;5592;49.234;7.268;2022-09-03T03:48:42;4.40;;;3.37;;
11078;SDS011;5592;49.234;7.268;2022-09-03T03:51:08;5.40;;;3.07;;
11078;SDS011;5592;49.234;7.268;2022-09-03T03:53:35;4.93;;;3.37;;
11078;SDS011;5592;49.234;7.268;2022-09-03T03:56:03;4.97;;;3.87;;
11078;SDS011;5592;49.234;7.268;2022-09-03T03:58:31;5.67;;;4.00;;
11078;SDS011;5592;49.234;7.268;2022-09-03T04:01:05;4.00;;;3.70;;
11078;SDS011;5592;49.234;7.268;2022-09-03T04:03:32;6.53;;;3.70;;
11078;SDS011;5592;49.234;7.268;2022-09-03T04:05:59;4.57;;;4.17;;
11078;SDS011;5592;49.234;7.268;2022-09-03T04:08:26;4.83;;;3.53;;
11078;SDS011;5592;49.234;7.268;2022-09-03T04:10:52;4.50;;;3.50;;
11078;SDS011;5592;49.234;7.268;2022-09-03T04:13:18;4.17;;;3.40;;
11078;SDS011;5592;49.234;7.268;2022-09-03T04:15:44;10.30;;;3.93;;
11078;SDS011;5592;49.234;7.268;2022-09-03T04:18:10;9.20;;;4.10;;
11078;SDS011;5592;49.234;7.268;2022-09-03T04:20:36;5.43;;;4.60;;
11078;SDS011;5592;49.234;7.268;2022-09-03T04:23:02;6.47;;;4.60;;
11078;SDS011;5592;49.234;7.268;2022-09-03T04:25:29;9.30;;;4.80;;
11078;SDS011;5592;49.234;7.268;2022-09-03T04:27:55;10.80;;;5.23;;
11078;SDS011;5592;49.234;7.268;2022-09-03T04:30:21;6.90;;;4.67;;
11078;SDS011;5592;49.234;7.268;2022-09-03T04:32:50;8.10;;;4.53;;
11078;SDS011;5592;49.234;7.268;2022-09-03T04:35:19;8.93;;;4.80;;
11078;SDS011;5592;49.234;7.268;2022-09-03T04:37:45;4.87;;;4.43;;
11078;SDS011;5592;49.234;7.268;2022-09-03T04:40:11;5.40;;;4.70;;
11078;SDS011;5592;49.234;7.268;2022-09-03T04:42:37;7.80;;;4.70;;
11078;SDS011;5592;49.234;7.268;2022-09-03T04:45:02;5.53;;;4.20;;
11078;SDS011;5592;49.234;7.268;2022-09-03T04:47:28;10.47;;;4.70;;
11078;SDS011;5592;49.234;7.268;2022-09-03T04:49:54;6.23;;;5.23;;
11078;SDS011;5592;49.234;7.268;2022-09-03T04:52:20;6.67;;;4.67;;
11078;SDS011;5592;49.234;7.268;2022-09-03T04:54:46;9.83;;;4.80;;
11078;SDS011;5592;49.234;7.268;2022-09-03T04:57:11;5.40;;;4.90;;
11078;SDS011;5592;49.234;7.268;2022-09-03T04:59:37;6.50;;;5.03;;
11078;SDS011;5592;49.234;7.268;2022-09-03T05:02:05;7.20;;;5.87;;
11078;SDS011;5592;49.234;7.268;2022-09-03T05:04:30;10.27;;;5.93;;
11078;SDS011;5592;49.234;7.268;2022-09-03T05:06:56;5.30;;;4.80;;
11078;SDS011;5592;49.234;7.268;2022-09-03T05:09:22;5.63;;;4.87;;
11078;SDS011;5592;49.234;7.268;2022-09-03T05:11:47;6.77;;;6.17;;
11078;SDS011;5592;49.234;7.268;2022-09-03T05:14:13;10.00;;;4.97;;
11078;SDS011;5592;49.234;7.268;2022-09-03T05:16:38;6.10;;;5.50;;
11078;SDS011;5592;49.234;7.268;2022-09-03T05:19:04;6.10;;;5.50;;
11078;SDS011;5592;49.234;7.268;2022-09-03T05:21:30;8.40;;;5.80;;
11078;SDS011;5592;49.234;7.268;2022-09-03T05:23:56;7.20;;;5.50;;
11078;SDS011;5592;49.234;7.268;2022-09-03T05:26:24;5.93;;;5.10;;
11078;SDS011;5592;49.234;7.268;2022-09-03T05:28:56;7.73;;;5.67;;
11078;SDS011;5592;49.234;7.268;2022-09-03T05:31:26;7.97;;;6.00;;
11078;SDS011;5592;49.234;7.268;2022-09-03T05:33:56;5.93;;;5.20;;
11078;SDS011;5592;49.234;7.268;2022-09-03T05:36:25;6.17;;;5.30;;
11078;SDS011;5592;49.234;7.268;2022-09-03T05:38:52;7.80;;;6.00;;
11078;SDS011;5592;49.234;7.268;2022-09-03T05:41:19;9.00;;;5.90;;
11078;SDS011;5592;49.234;7.268;2022-09-03T05:43:48;9.53;;;6.00;;
11078;SDS011;5592;49.234;7.268;2022-09-03T05:46:20;8.50;;;6.07;;
11078;SDS011;5592;49.234;7.268;2022-09-03T05:48:50;9.80;;;5.77;;
11078;SDS011;5592;49.234;7.268;2022-09-03T05:51:17;7.47;;;6.77;;
11078;SDS011;5592;49.234;7.268;2022-09-03T05:53:44;6.20;;;5.60;;
11078;SDS011;5592;49.234;7.268;2022-09-03T05:56:12;8.70;;;6.30;;
11078;SDS011;5592;49.234;7.268;2022-09-03T05:58:42;8.20;;;5.20;;
11078;SDS011;5592;49.234;7.268;2022-09-03T06:03:39;8.53;;;5.70;;
11078;SDS011;5592;49.234;7.268;2022-09-03T06:06:07;7.70;;;5.67;;
11078;SDS011;5592;49.234;7.268;2022-09-03T06:08:33;6.47;;;5.57;;
11078;SDS011;5592;49.234;7.268;2022-09-03T06:11:00;7.30;;;6.17;;
11078;SDS011;5592;49.234;7.268;2022-09-03T06:13:28;7.00;;;5.93;;
11078;SDS011;5592;49.234;7.268;2022-09-03T06:15:55;7.67;;;6.50;;
11078;SDS011;5592;49.234;7.268;2022-09-03T06:18:25;6.37;;;5.70;;
11078;SDS011;5592;49.234;7.268;2022-09-03T06:20:58;7.57;;;5.70;;
11078;SDS011;5592;49.234;7.268;2022-09-03T06:23:26;6.23;;;5.40;;
11078;SDS011;5592;49.234;7.268;2022-09-03T06:26:06;9.63;;;5.73;;
11078;SDS011;5592;49.234;7.268;2022-09-03T06:28:34;8.90;;;6.30;;
11078;SDS011;5592;49.234;7.268;2022-09-03T06:31:03;7.00;;;6.40;;
11078;SDS011;5592;49.234;7.268;2022-09-03T06:33:31;8.10;;;6.73;;
11078;SDS011;5592;49.234;7.268;2022-09-03T06:35:58;9.67;;;6.70;;
11078;SDS011;5592;49.234;7.268;2022-09-03T06:38:25;9.20;;;6.97;;
11078;SDS011;5592;49.234;7.268;2022-09-03T06:40:54;7.50;;;6.63;;
11078;SDS011;5592;49.234;7.268;2022-09-03T06:43:23;7.07;;;5.87;;
11078;SDS011;5592;49.234;7.268;2022-09-03T06:45:57;7.50;;;6.43;;
11078;SDS011;5592;49.234;7.268;2022-09-03T06:48:24;8.17;;;6.10;;
11078;SDS011;5592;49.234;7.268;2022-09-03T06:50:54;7.17;;;6.07;;
11078;SDS011;5592;49.234;7.268;2022-09-03T06:53:22;8.00;;;6.80;;
11078;SDS011;5592;49.234;7.268;2022-09-03T06:56:01;6.43;;;5.90;;
11078;SDS011;5592;49.234;7.268;2022-09-03T06:58:33;7.07;;;6.37;;
11078;SDS011;5592;49.234;7.268;2022-09-03T07:01:05;9.20;;;6.67;;
11078;SDS011;5592;49.234;7.268;2022-09-03T07:03:35;9.37;;;6.20;;
11078;SDS011;5592;49.234;7.268;2022-09-03T07:06:12;7.00;;;6.27;;
11078;SDS011;5592;49.234;7.268;2022-09-03T07:08:42;10.17;;;6.10;;
11078;SDS011;5592;49.234;7.268;2022-09-03T07:11:12;13.33;;;6.97;;
11078;SDS011;5592;49.234;7.268;2022-09-03T07:13:44;14.60;;;6.10;;
11078;SDS011;5592;49.234;7.268;2022-09-03T07:18:39;7.73;;;6.30;;
11078;SDS011;5592;49.234;7.268;2022-09-03T07:21:09;6.77;;;5.87;;
11078;SDS011;5592;49.234;7.268;2022-09-03T07:23:39;7.70;;;6.03;;
11078;SDS011;5592;49.234;7.268;2022-09-03T07:26:06;7.07;;;6.00;;
11078;SDS011;5592;49.234;7.268;2022-09-03T07:28:34;7.37;;;5.23;;
11078;SDS011;5592;49.234;7.268;2022-09-03T07:31:03;7.27;;;5.60;;
11078;SDS011;5592;49.234;7.268;2022-09-03T07:33:39;7.30;;;5.70;;
11078;SDS011;5592;49.234;7.268;2022-09-03T07:36:12;5.83;;;5.23;;
11078;SDS011;5592;49.234;7.268;2022-09-03T07:38:40;9.03;;;4.80;;
11078;SDS011;5592;49.234;7.268;2022-09-03T07:41:08;4.97;;;4.47;;
11078;SDS011;5592;49.234;7.268;2022-09-03T07:43:36;6.83;;;5.23;;
11078;SDS011;5592;49.234;7.268;2022-09-03T07:46:04;7.67;;;4.97;;
11078;SDS011;5592;49.234;7.268;2022-09-03T07:48:31;9.87;;;5.20;;
11078;SDS011;5592;49.234;7.268;2022-09-03T07:50:59;6.30;;;4.50;;
11078;SDS011;5592;49.234;7.268;2022-09-03T07:53:26;4.15;;;3.55;;
11078;SDS011;5592;49.234;7.268;2022-09-03T07:55:53;7.03;;;4.30;;
11078;SDS011;5592;49.234;7.268;2022-09-03T07:58:27;3.97;;;3.57;;
11078;SDS011;5592;49.234;7.268;2022-09-03T08:00:53;4.80;;;3.20;;
11078;SDS011;5592;49.234;7.268;2022-09-03T08:03:21;3.40;;;2.60;;
11078;SDS011;5592;49.234;7.268;2022-09-03T08:05:47;4.33;;;2.87;;
11078;SDS011;5592;49.234;7.268;2022-09-03T08:08:12;2.83;;;1.80;;
11078;SDS011;5592;49.234;7.268;2022-09-03T08:10:39;1.97;;;1.77;;
11078;SDS011;5592;49.234;7.268;2022-09-03T08:13:05;2.40;;;1.67;;
11078;SDS011;5592;49.234;7.268;2022-09-03T08:15:31;2.07;;;1.40;;
11078;SDS011;5592;49.234;7.268;2022-09-03T08:17:58;1.83;;;1.60;;
11078;SDS011;5592;49.234;7.268;2022-09-03T08:20:25;1.30;;;1.20;;
11078;SDS011;5592;49.234;7.268;2022-09-03T08:22:51;1.60;;;1.50;;
11078;SDS011;5592;49.234;7.268;2022-09-03T08:25:17;1.90;;;1.70;;
11078;SDS011;5592;49.234;7.268;2022-09-03T08:27:43;1.50;;;1.40;;
11078;SDS011;5592;49.234;7.268;2022-09-03T08:30:08;1.60;;;1.50;;
11078;SDS011;5592;49.234;7.268;2022-09-03T08:32:37;5.93;;;1.67;;
11078;SDS011;5592;49.234;7.268;2022-09-03T08:35:04;1.73;;;1.60;;
11078;SDS011;5592;49.234;7.268;2022-09-03T08:37:31;2.17;;;1.50;;
11078;SDS011;5592;49.234;7.268;2022-09-03T08:39:57;1.63;;;1.53;;
11078;SDS011;5592;49.234;7.268;2022-09-03T08:42:27;1.87;;;1.77;;
11078;SDS011;5592;49.234;7.268;2022-09-03T08:45:02;3.57;;;1.80;;
11078;SDS011;5592;49.234;7.268;2022-09-03T08:50:30;1.80;;;1.53;;
11078;SDS011;5592;49.234;7.268;2022-09-03T08:55:54;2.83;;;2.30;;
11078;SDS011;5592;49.234;7.268;2022-09-03T08:58:25;2.50;;;2.20;;
11078;SDS011;5592;49.234;7.268;2022-09-03T09:00:54;2.43;;;1.90;;
11078;SDS011;5592;49.234;7.268;2022-09-03T09:06:20;5.83;;;2.63;;
11078;SDS011;5592;49.234;7.268;2022-09-03T09:08:56;2.40;;;2.20;;
11078;SDS011;5592;49.234;7.268;2022-09-03T09:14:56;4.40;;;2.30;;
11078;SDS011;5592;49.234;7.268;2022-09-03T09:25:26;2.90;;;2.13;;
11078;SDS011;5592;49.234;7.268;2022-09-03T09:28:02;6.10;;;2.20;;
11078;SDS011;5592;49.234;7.268;2022-09-03T09:30:38;1.90;;;1.70;;
11078;SDS011;5592;49.234;7.268;2022-09-03T09:33:04;2.10;;;1.60;;
11078;SDS011;5592;49.234;7.268;2022-09-03T09:35:31;1.80;;;1.70;;
11078;SDS011;5592;49.234;7.268;2022-09-03T09:37:57;2.77;;;1.50;;
11078;SDS011;5592;49.234;7.268;2022-09-03T09:40:34;2.37;;;1.70;;
11078;SDS011;5592;49.234;7.268;2022-09-03T09:43:16;1.90;;;1.80;;
11078;SDS011;5592;49.234;7.268;2022-09-03T09:45:46;3.57;;;1.40;;
11078;SDS011;5592;49.234;7.268;2022-09-03T09:48:19;1.77;;;1.43;;
11078;SDS011;5592;49.234;7.268;2022-09-03T09:51:17;4.80;;;2.13;;
11078;SDS011;5592;49.234;7.268;2022-09-03T09:53:45;2.30;;;1.50;;
11078;SDS011;5592;49.234;7.268;2022-09-03T09:56:21;1.67;;;1.57;;
11078;SDS011;5592;49.234;7.268;2022-09-03T09:58:48;1.77;;;1.40;;
11078;SDS011;5592;49.234;7.268;2022-09-03T10:01:22;1.80;;;1.50;;
11078;SDS011;5592;49.234;7.268;2022-09-03T10:03:55;1.50;;;1.37;;
11078;SDS011;5592;49.234;7.268;2022-09-03T10:06:23;5.30;;;1.50;;
11078;SDS011;5592;49.234;7.268;2022-09-03T10:09:16;2.47;;;2.27;;
11078;SDS011;5592;49.234;7.268;2022-09-03T10:14:49;1.83;;;1.73;;
11078;SDS011;5592;49.234;7.268;2022-09-03T10:20:18;1.67;;;1.53;;
11078;SDS011;5592;49.234;7.268;2022-09-03T10:22:56;2.10;;;1.80;;
11078;SDS011;5592;49.234;7.268;2022-09-03T10:25:30;1.73;;;1.63;;
11078;SDS011;5592;49.234;7.268;2022-09-03T10:28:17;2.10;;;1.90;;
11078;SDS011;5592;49.234;7.268;2022-09-03T10:36:24;2.63;;;2.10;;
11078;SDS011;5592;49.234;7.268;2022-09-03T10:39:04;3.33;;;2.00;;
11078;SDS011;5592;49.234;7.268;2022-09-03T10:41:58;2.03;;;1.80;;
11078;SDS011;5592;49.234;7.268;2022-09-03T10:52:26;2.80;;;2.40;;
11078;SDS011;5592;49.234;7.268;2022-09-03T11:00:08;3.10;;;2.30;;
11078;SDS011;5592;49.234;7.268;2022-09-03T11:05:08;2.27;;;2.07;;
11078;SDS011;5592;49.234;7.268;2022-09-03T11:07:44;3.00;;;2.70;;
11078;SDS011;5592;49.234;7.268;2022-09-03T11:12:49;2.33;;;2.20;;
11078;SDS011;5592;49.234;7.268;2022-09-03T11:15:32;3.20;;;2.20;;
11078;SDS011;5592;49.234;7.268;2022-09-03T11:18:23;2.73;;;2.30;;
11078;SDS011;5592;49.234;7.268;2022-09-03T11:20:50;3.03;;;2.30;;
11078;SDS011;5592;49.234;7.268;2022-09-03T11:23:20;2.97;;;2.70;;
11078;SDS011;5592;49.234;7.268;2022-09-03T11:25:50;2.40;;;2.20;;
11078;SDS011;5592;49.234;7.268;2022-09-03T11:34:10;3.23;;;2.93;;
11078;SDS011;5592;49.234;7.268;2022-09-03T11:36:38;4.63;;;2.60;;
11078;SDS011;5592;49.234;7.268;2022-09-03T11:41:56;2.10;;;1.93;;
11078;SDS011;5592;49.234;7.268;2022-09-03T11:44:34;3.80;;;2.43;;
11078;SDS011;5592;49.234;7.268;2022-09-03T11:47:24;3.50;;;2.53;;
11078;SDS011;5592;49.234;7.268;2022-09-03T11:50:06;3.00;;;2.43;;
11078;SDS011;5592;49.234;7.268;2022-09-03T11:52:54;2.47;;;2.27;;
11078;SDS011;5592;49.234;7.268;2022-09-03T11:55:52;2.40;;;2.20;;
11078;SDS011;5592;49.234;7.268;2022-09-03T11:58:32;2.67;;;2.33;;
11078;SDS011;5592;49.234;7.268;2022-09-03T12:01:02;2.20;;;2.00;;
11078;SDS011;5592;49.234;7.268;2022-09-03T12:03:46;2.50;;;2.03;;
11078;SDS011;5592;49.234;7.268;2022-09-03T12:06:37;3.47;;;2.40;;
11078;SDS011;5592;49.234;7.268;2022-09-03T12:09:33;2.30;;;2.10;;
11078;SDS011;5592;49.234;7.268;2022-09-03T12:12:22;2.73;;;1.97;;
11078;SDS011;5592;49.234;7.268;2022-09-03T12:20:39;1.90;;;1.80;;
11078;SDS011;5592;49.234;7.268;2022-09-03T12:23:06;2.37;;;1.60;;
11078;SDS011;5592;49.234;7.268;2022-09-03T12:25:35;2.60;;;2.10;;
11078;SDS011;5592;49.234;7.268;2022-09-03T12:28:11;7.07;;;2.20;;
11078;SDS011;5592;49.234;7.268;2022-09-03T12:30:45;6.10;;;1.90;;
11078;SDS011;5592;49.234;7.268;2022-09-03T12:33:11;2.67;;;2.10;;
11078;SDS011;5592;49.234;7.268;2022-09-03T12:35:38;2.40;;;2.20;;
11078;SDS011;5592;49.234;7.268;2022-09-03T12:38:03;3.33;;;2.03;;
11078;SDS011;5592;49.234;7.268;2022-09-03T12:40:29;2.73;;;1.90;;
11078;SDS011;5592;49.234;7.268;2022-09-03T12:43:10;2.40;;;2.30;;
11078;SDS011;5592;49.234;7.268;2022-09-03T12:45:41;3.53;;;2.40;;
11078;SDS011;5592;49.234;7.268;2022-09-03T12:48:12;2.27;;;1.90;;
11078;SDS011;5592;49.234;7.268;2022-09-03T12:50:42;2.80;;;2.20;;
11078;SDS011;5592;49.234;7.268;2022-09-03T12:53:10;2.90;;;2.30;;
11078;SDS011;5592;49.234;7.268;2022-09-03T12:58:19;2.50;;;2.30;;
11078;SDS011;5592;49.234;7.268;2022-09-03T13:00:46;2.20;;;2.00;;
11078;SDS011;5592;49.234;7.268;2022-09-03T13:03:29;3.43;;;2.90;;
11078;SDS011;5592;49.234;7.268;2022-09-03T13:06:02;3.60;;;2.30;;
11078;SDS011;5592;49.234;7.268;2022-09-03T13:08:43;2.90;;;2.50;;
11078;SDS011;5592;49.234;7.268;2022-09-03T13:11:14;3.40;;;2.60;;
11078;SDS011;5592;49.234;7.268;2022-09-03T13:13:49;7.27;;;2.57;;
11078;SDS011;5592;49.234;7.268;2022-09-03T13:19:08;2.37;;;2.17;;
11078;SDS011;5592;49.234;7.268;2022-09-03T13:24:48;3.13;;;2.90;;
11078;SDS011;5592;49.234;7.268;2022-09-03T13:27:30;3.80;;;2.40;;
11078;SDS011;5592;49.234;7.268;2022-09-03T13:32:43;5.37;;;2.43;;
11078;SDS011;5592;49.234;7.268;2022-09-03T13:43:20;3.10;;;2.90;;
11078;SDS011;5592;49.234;7.268;2022-09-03T13:46:04;3.10;;;2.80;;
11078;SDS011;5592;49.234;7.268;2022-09-03T13:48:36;2.80;;;2.60;;
11078;SDS011;5592;49.234;7.268;2022-09-03T13:51:37;3.17;;;2.40;;
11078;SDS011;5592;49.234;7.268;2022-09-03T13:54:13;3.57;;;2.50;;
11078;SDS011;5592;49.234;7.268;2022-09-03T13:59:39;6.47;;;2.10;;
11078;SDS011;5592;49.234;7.268;2022-09-03T14:05:37;2.37;;;1.30;;
11078;SDS011;5592;49.234;7.268;2022-09-03T14:10:59;1.93;;;1.30;;
11078;SDS011;5592;49.234;7.268;2022-09-03T14:16:24;3.97;;;1.50;;
11078;SDS011;5592;49.234;7.268;2022-09-03T14:19:00;2.70;;;1.43;;
11078;SDS011;5592;49.234;7.268;2022-09-03T14:26:59;2.33;;;1.30;;
11078;SDS011;5592;49.234;7.268;2022-09-03T14:29:30;2.57;;;1.40;;
11078;SDS011;5592;49.234;7.268;2022-09-03T14:40:38;2.50;;;1.10;;
11078;SDS011;5592;49.234;7.268;2022-09-03T14:58:00;1.40;;;1.30;;
11078;SDS011;5592;49.234;7.268;2022-09-03T15:01:35;3.70;;;1.20;;
11078;SDS011;5592;49.234;7.268;2022-09-03T15:11:33;3.47;;;1.23;;
11078;SDS011;5592;49.234;7.268;2022-09-03T15:14:29;2.40;;;1.23;;
11078;SDS011;5592;49.234;7.268;2022-09-03T15:36:50;1.53;;;1.20;;
11078;SDS011;5592;49.234;7.268;2022-09-03T15:39:22;2.20;;;1.50;;
11078;SDS011;5592;49.234;7.268;2022-09-03T15:41:56;1.30;;;1.20;;
11078;SDS011;5592;49.234;7.268;2022-09-03T15:44:24;3.23;;;1.50;;
11078;SDS011;5592;49.234;7.268;2022-09-03T15:52:25;2.20;;;1.20;;
11078;SDS011;5592;49.234;7.268;2022-09-03T15:55:35;1.50;;;1.40;;
11078;SDS011;5592;49.234;7.268;2022-09-03T15:58:13;2.43;;;1.47;;
11078;SDS011;5592;49.234;7.268;2022-09-03T16:03:12;2.10;;;1.27;;
11078;SDS011;5592;49.234;7.268;2022-09-03T16:05:41;7.27;;;1.97;;
11078;SDS011;5592;49.234;7.268;2022-09-03T16:11:06;2.40;;;1.57;;
11078;SDS011;5592;49.234;7.268;2022-09-03T16:16:51;2.70;;;1.50;;
11078;SDS011;5592;49.234;7.268;2022-09-03T16:19:42;1.70;;;1.60;;
11078;SDS011;5592;49.234;7.268;2022-09-03T16:22:30;2.07;;;1.87;;
11078;SDS011;5592;49.234;7.268;2022-09-03T16:25:09;3.13;;;1.70;;
11078;SDS011;5592;49.234;7.268;2022-09-03T16:33:10;2.17;;;1.97;;
11078;SDS011;5592;49.234;7.268;2022-09-03T16:35:59;2.50;;;1.97;;
11078;SDS011;5592;49.234;7.268;2022-09-03T16:38:57;2.50;;;2.30;;
11078;SDS011;5592;49.234;7.268;2022-09-03T16:41:35;2.83;;;2.23;;
11078;SDS011;5592;49.234;7.268;2022-09-03T16:44:30;2.43;;;2.20;;
11078;SDS011;5592;49.234;7.268;2022-09-03T16:50:33;3.10;;;2.27;;
11078;SDS011;5592;49.234;7.268;2022-09-03T16:58:39;3.50;;;2.20;;
11078;SDS011;5592;49.234;7.268;2022-09-03T17:03:49;2.63;;;2.10;;
11078;SDS011;5592;49.234;7.268;2022-09-03T17:09:23;3.50;;;2.00;;
11078;SDS011;5592;49.234;7.268;2022-09-03T17:12:10;2.17;;;1.90;;
11078;SDS011;5592;49.234;7.268;2022-09-03T17:25:37;3.47;;;2.27;;
11078;SDS011;5592;49.234;7.268;2022-09-03T17:34:17;2.70;;;2.43;;
11078;SDS011;5592;49.234;7.268;2022-09-03T17:53:37;3.53;;;2.83;;
11078;SDS011;5592;49.234;7.268;2022-09-03T17:56:23;3.00;;;2.30;;
11078;SDS011;5592;49.234;7.268;2022-09-03T18:03:00;2.63;;;2.43;;
11078;SDS011;5592;49.234;7.268;2022-09-03T18:07:37;3.83;;;2.90;;
11078;SDS011;5592;49.234;7.268;2022-09-03T18:15:36;5.73;;;3.23;;
11078;SDS011;5592;49.234;7.268;2022-09-03T18:18:23;3.87;;;2.90;;
11078;SDS011;5592;49.234;7.268;2022-09-03T18:20:58;4.43;;;3.33;;
11078;SDS011;5592;49.234;7.268;2022-09-03T18:23:47;3.10;;;2.73;;
11078;SDS011;5592;49.234;7.268;2022-09-03T18:26:53;4.27;;;2.93;;
11078;SDS011;5592;49.234;7.268;2022-09-03T18:29:48;3.00;;;2.70;;
11078;SDS011;5592;49.234;7.268;2022-09-03T18:32:37;4.90;;;3.37;;
11078;SDS011;5592;49.234;7.268;2022-09-03T18:35:22;3.57;;;3.20;;
11078;SDS011;5592;49.234;7.268;2022-09-03T18:38:11;4.33;;;3.30;;
11078;SDS011;5592;49.234;7.268;2022-09-03T18:41:07;3.97;;;3.33;;
11078;SDS011;5592;49.234;7.268;2022-09-03T18:50:25;4.07;;;3.53;;
11078;SDS011;5592;49.234;7.268;2022-09-03T19:05:18;4.27;;;3.60;;
11078;SDS011;5592;49.234;7.268;2022-09-03T19:14:02;5.97;;;4.10;;
11078;SDS011;5592;49.234;7.268;2022-09-03T19:17:02;4.53;;;4.13;;
11078;SDS011;5592;49.234;7.268;2022-09-03T19:22:55;4.73;;;4.30;;
11078;SDS011;5592;49.234;7.268;2022-09-03T19:25:40;5.20;;;4.13;;
11078;SDS011;5592;49.234;7.268;2022-09-03T19:28:25;8.23;;;4.33;;
11078;SDS011;5592;49.234;7.268;2022-09-03T19:37:12;6.23;;;4.50;;
11078;SDS011;5592;49.234;7.268;2022-09-03T19:43:15;7.97;;;5.53;;
11078;SDS011;5592;49.234;7.268;2022-09-03T19:52:49;5.63;;;4.40;;
11078;SDS011;5592;49.234;7.268;2022-09-03T19:55:48;7.93;;;5.40;;
11078;SDS011;5592;49.234;7.268;2022-09-03T19:58:37;5.87;;;5.27;;
11078;SDS011;5592;49.234;7.268;2022-09-03T20:01:37;12.33;;;5.50;;
11078;SDS011;5592;49.234;7.268;2022-09-03T20:04:26;6.73;;;6.10;;
11078;SDS011;5592;49.234;7.268;2022-09-03T20:07:17;5.77;;;5.20;;
11078;SDS011;5592;49.234;7.268;2022-09-03T20:10:04;11.53;;;6.50;;
11078;SDS011;5592;49.234;7.268;2022-09-03T20:19:00;6.53;;;5.40;;
11078;SDS011;5592;49.234;7.268;2022-09-03T20:21:37;12.20;;;5.70;;
11078;SDS011;5592;49.234;7.268;2022-09-03T20:24:10;7.43;;;5.80;;
11078;SDS011;5592;49.234;7.268;2022-09-03T20:26:59;8.67;;;5.50;;
11078;SDS011;5592;49.234;7.268;2022-09-03T20:29:55;6.17;;;5.00;;
11078;SDS011;5592;49.234;7.268;2022-09-03T20:51:19;8.43;;;5.53;;
11078;SDS011;5592;49.234;7.268;2022-09-03T20:57:14;7.70;;;5.30;;
11078;SDS011;5592;49.234;7.268;2022-09-03T21:03:06;8.20;;;5.03;;
11078;SDS011;5592;49.234;7.268;2022-09-03T21:05:32;41.43;;;6.07;;
11078;SDS011;5592;49.234;7.268;2022-09-03T21:10:31;29.63;;;6.40;;
11078;SDS011;5592;49.234;7.268;2022-09-03T21:15:47;75.67;;;7.50;;
11078;SDS011;5592;49.234;7.268;2022-09-03T21:19:08;46.13;;;6.50;;
11078;SDS011;5592;49.234;7.268;2022-09-03T21:24:01;41.70;;;6.70;;
11078;SDS011;5592;49.234;7.268;2022-09-03T21:26:33;30.27;;;5.93;;
11078;SDS011;5592;49.234;7.268;2022-09-03T21:34:40;9.03;;;5.27;;
11078;SDS011;5592;49.234;7.268;2022-09-03T21:37:22;27.20;;;6.60;;
11078;SDS011;5592;49.234;7.268;2022-09-03T21:44:54;24.07;;;6.30;;
11078;SDS011;5592;49.234;7.268;2022-09-03T21:47:43;29.60;;;6.33;;
11078;SDS011;5592;49.234;7.268;2022-09-03T21:50:18;10.73;;;5.90;;
11078;SDS011;5592;49.234;7.268;2022-09-03T21:52:56;19.77;;;6.57;;
11078;SDS011;5592;49.234;7.268;2022-09-03T21:56:03;37.93;;;7.10;;
11078;SDS011;5592;49.234;7.268;2022-09-03T21:59:28;21.33;;;6.20;;
11078;SDS011;5592;49.234;7.268;2022-09-03T22:02:22;15.07;;;6.30;;
11078;SDS011;5592;49.234;7.268;2022-09-03T22:04:53;45.87;;;8.83;;
11078;SDS011;5592;49.234;7.268;2022-09-03T22:10:02;59.40;;;18.03;;
11078;SDS011;5592;49.234;7.268;2022-09-03T22:12:55;85.40;;;13.63;;
11078;SDS011;5592;49.234;7.268;2022-09-03T22:15:42;22.17;;;9.10;;
11078;SDS011;5592;49.234;7.268;2022-09-03T22:18:18;17.23;;;7.10;;
11078;SDS011;5592;49.234;7.268;2022-09-03T22:21:16;28.30;;;8.83;;
11078;SDS011;5592;49.234;7.268;2022-09-03T22:24:28;40.97;;;9.10;;
11078;SDS011;5592;49.234;7.268;2022-09-03T22:27:17;44.83;;;9.03;;